createdAt,value
2023-03-17T00:00:01.249Z,-1.68
2023-03-17T00:10:12.436Z,-1.71
2023-03-17T00:20:23.481Z,-1.73
2023-03-17T00:30:30.938Z,-1.79
2023-03-17T00:40:38.014Z,-1.88
2023-03-17T00:50:44.984Z,-1.97
2023-03-17T01:00:52.398Z,-2.02
2023-03-17T01:11:00.498Z,-1.95
2023-03-17T01:21:08.289Z,-1.84
2023-03-17T01:31:15.569Z,-1.91
2023-03-17T01:41:22.901Z,-2.04
2023-03-17T01:51:31.398Z,-2.20
2023-03-17T02:01:43.721Z,-2.40
2023-03-17T02:11:50.772Z,-2.56
2023-03-17T02:21:57.177Z,-2.60
2023-03-17T02:32:02.134Z,-2.53
2023-03-17T02:42:09.146Z,-2.39
2023-03-17T02:52:16.228Z,-2.34
2023-03-17T03:02:23.082Z,-2.50
2023-03-17T03:12:30.846Z,-2.60
2023-03-17T03:22:41.681Z,-2.71
2023-03-17T03:32:49.335Z,-2.84
2023-03-17T03:42:56.657Z,-2.79
2023-03-17T03:53:03.856Z,-2.76
2023-03-17T04:03:11.000Z,-2.82
2023-03-17T04:13:18.240Z,-2.89
2023-03-17T04:23:25.589Z,-2.90
2023-03-17T04:33:32.671Z,-2.78
2023-03-17T04:43:38.893Z,-2.67
2023-03-17T04:53:46.364Z,-2.59
2023-03-17T05:03:54.016Z,-2.57
2023-03-17T05:14:01.302Z,-2.63
2023-03-17T05:24:06.605Z,-2.53
2023-03-17T05:34:14.051Z,-2.29
2023-03-17T05:44:20.740Z,-1.54
2023-03-17T05:54:27.906Z,-0.72
2023-03-17T06:04:35.262Z,0.26
2023-03-17T06:14:42.586Z,1.01
2023-03-17T06:24:50.123Z,1.43
2023-03-17T06:34:57.122Z,1.97
2023-03-17T06:45:05.306Z,3.00
2023-03-17T06:55:13.842Z,3.91
2023-03-17T07:05:18.849Z,4.64
2023-03-17T07:15:26.335Z,4.86
2023-03-17T07:25:37.331Z,5.11
2023-03-17T07:35:44.953Z,5.22
2023-03-17T07:45:52.391Z,5.44
2023-03-17T07:55:59.938Z,5.54
2023-03-17T08:06:06.639Z,5.84
2023-03-17T08:16:13.362Z,6.23
2023-03-17T08:26:18.916Z,6.62
2023-03-17T08:36:26.223Z,7.12
2023-03-17T08:46:34.719Z,7.36
2023-03-17T08:56:42.258Z,7.44
2023-03-17T09:07:02.870Z,7.75
2023-03-17T09:27:18.460Z,8.43
2023-03-17T09:37:24.980Z,8.88
2023-03-17T09:48:03.982Z,9.10
2023-03-17T09:58:13.123Z,9.16
2023-03-17T10:08:31.622Z,9.33
2023-03-17T10:18:44.136Z,9.22
2023-03-17T10:28:51.809Z,9.49
2023-03-17T10:38:59.002Z,9.57
2023-03-17T10:49:10.897Z,9.56
2023-03-17T10:59:19.856Z,9.68
2023-03-17T11:09:28.841Z,9.83
2023-03-17T11:19:37.722Z,10.04
2023-03-17T11:30:09.723Z,10.17
2023-03-17T11:40:21.899Z,10.27
2023-03-17T11:50:28.429Z,10.24
2023-03-17T12:00:38.183Z,10.34
2023-03-17T12:10:49.740Z,10.38
2023-03-17T12:21:02.023Z,10.41
2023-03-17T12:31:14.178Z,10.63
2023-03-17T12:41:41.759Z,10.64
2023-03-17T12:51:51.602Z,10.85
2023-03-17T13:01:57.648Z,10.89
2023-03-17T13:12:04.741Z,10.86
2023-03-17T13:22:38.879Z,10.65
2023-03-17T13:32:45.647Z,10.75
2023-03-17T13:42:58.417Z,10.93
2023-03-17T13:53:11.086Z,11.00
2023-03-17T14:03:19.126Z,10.93
2023-03-17T14:13:28.828Z,11.08
2023-03-17T14:23:34.895Z,10.94
2023-03-17T14:33:43.318Z,10.68
2023-03-17T14:43:51.359Z,10.55
2023-03-17T14:54:02.294Z,10.37
2023-03-17T15:04:12.765Z,10.33
2023-03-17T15:14:27.266Z,10.19
2023-03-17T15:24:38.170Z,10.03
2023-03-17T15:34:45.577Z,9.99
2023-03-17T15:44:53.191Z,9.95
2023-03-17T15:55:01.530Z,9.84
2023-03-17T16:05:08.599Z,9.71
2023-03-17T16:15:23.031Z,9.51
2023-03-17T16:25:32.936Z,9.19
2023-03-17T16:35:40.769Z,8.85
2023-03-17T16:45:47.938Z,8.50
2023-03-17T16:55:56.886Z,8.16
2023-03-17T17:06:04.332Z,7.83
2023-03-17T17:16:14.826Z,7.50
2023-03-17T17:26:21.307Z,7.28
2023-03-17T17:36:29.336Z,6.99
2023-03-17T17:46:37.766Z,6.78
2023-03-17T17:56:47.007Z,6.57
2023-03-17T18:06:54.187Z,6.37
2023-03-17T18:17:01.645Z,6.20
2023-03-17T18:27:07.347Z,6.03
2023-03-17T18:37:17.839Z,5.89
2023-03-17T18:47:25.105Z,5.68
2023-03-17T18:57:32.378Z,5.47
2023-03-17T19:17:46.789Z,5.30
2023-03-17T19:27:53.934Z,5.30
2023-03-17T19:38:03.897Z,5.32
2023-03-17T19:48:11.582Z,5.29
2023-03-17T19:58:19.053Z,5.21
2023-03-17T20:08:26.678Z,5.15
2023-03-17T20:18:34.563Z,5.14
2023-03-17T20:28:40.932Z,5.08
2023-03-17T20:48:58.913Z,4.90
2023-03-17T20:59:09.750Z,4.75
2023-03-17T21:09:16.910Z,4.60
2023-03-17T21:19:24.192Z,4.45
2023-03-17T21:29:32.912Z,4.30
2023-03-17T21:39:40.238Z,4.19
2023-03-17T21:49:47.223Z,4.04
2023-03-17T21:59:54.597Z,3.90
2023-03-17T22:10:01.184Z,3.81
2023-03-17T22:20:07.247Z,3.68
2023-03-17T22:30:15.875Z,3.56
2023-03-17T22:40:20.670Z,3.40
2023-03-17T22:50:28.214Z,3.23
2023-03-17T23:00:36.307Z,2.89
2023-03-17T23:10:42.469Z,2.68
2023-03-17T23:20:49.976Z,2.64
2023-03-17T23:30:58.292Z,2.53
2023-03-17T23:41:05.423Z,2.38
2023-03-17T23:51:11.139Z,2.28
